Mys Shmidta, Russia
Current Conditions -  °F | °C
As of 12:00 AM on Friday 30 Jan 2015 (Local Time) from UHMA Reporting Station
Overcast Overcast  
Wind Chill: -12°   Ceiling: 8000
Heat Index: -2°   Visibility: 6mi
Dew Point: -9°   Wind: 4mph
Humidity: 71%   Direction: NA
Pressure: 30.48"   Gusts: NA
Location:  68.93°N, 179.5°W
Report Text: UHMA 291200Z VRB02MPS 9999 OVC080 M19/M23 Q1032 RMKQFE770/1026
Loading
Personal Weather Stations






























Interactive Weather Map New forecast layout! Learn more

10-Day Weather Forecast

Advertisements
Track Severe Weather on mobile